sensor_id;sensor_type;location;lat;lon;timestamp;temperature;humidity
18305;DHT22;9278;52.156;21.048;2023-12-07T00:00:42;0.70;1.00
18305;DHT22;9278;52.156;21.048;2023-12-07T00:03:10;0.60;1.00
18305;DHT22;9278;52.156;21.048;2023-12-07T00:05:38;0.70;1.00
18305;DHT22;9278;52.156;21.048;2023-12-07T00:08:09;0.60;1.00
18305;DHT22;9278;52.156;21.048;2023-12-07T00:10:37;0.70;1.00
18305;DHT22;9278;52.156;21.048;2023-12-07T00:13:05;0.70;1.00
18305;DHT22;9278;52.156;21.048;2023-12-07T00:15:34;0.70;1.00
18305;DHT22;9278;52.156;21.048;2023-12-07T00:18:03;0.70;1.00
18305;DHT22;9278;52.156;21.048;2023-12-07T00:20:32;0.70;1.00
18305;DHT22;9278;52.156;21.048;2023-12-07T00:23:00;0.70;1.00
18305;DHT22;9278;52.156;21.048;2023-12-07T00:25:29;0.70;1.00
18305;DHT22;9278;52.156;21.048;2023-12-07T00:27:57;0.80;1.00
18305;DHT22;9278;52.156;21.048;2023-12-07T00:30:26;0.90;1.00
18305;DHT22;9278;52.156;21.048;2023-12-07T00:32:54;0.80;1.00
18305;DHT22;9278;52.156;21.048;2023-12-07T00:35:24;0.90;1.00
18305;DHT22;9278;52.156;21.048;2023-12-07T00:37:56;0.80;1.00
18305;DHT22;9278;52.156;21.048;2023-12-07T00:40:24;0.90;1.00
18305;DHT22;9278;52.156;21.048;2023-12-07T00:42:52;0.90;1.00
18305;DHT22;9278;52.156;21.048;2023-12-07T00:45:21;0.90;1.00
18305;DHT22;9278;52.156;21.048;2023-12-07T00:47:49;0.80;1.00
18305;DHT22;9278;52.156;21.048;2023-12-07T00:50:17;1.00;1.00
18305;DHT22;9278;52.156;21.048;2023-12-07T00:52:47;1.00;1.00
18305;DHT22;9278;52.156;21.048;2023-12-07T00:55:15;0.80;1.00
18305;DHT22;9278;52.156;21.048;2023-12-07T00:57:44;0.80;1.00
18305;DHT22;9278;52.156;21.048;2023-12-07T01:00:13;0.90;1.00
18305;DHT22;9278;52.156;21.048;2023-12-07T01:02:41;0.90;1.00
18305;DHT22;9278;52.156;21.048;2023-12-07T01:05:09;0.90;1.00
18305;DHT22;9278;52.156;21.048;2023-12-07T01:07:38;0.80;1.00
18305;DHT22;9278;52.156;21.048;2023-12-07T01:10:08;0.80;1.00
18305;DHT22;9278;52.156;21.048;2023-12-07T01:12:37;0.90;1.00
18305;DHT22;9278;52.156;21.048;2023-12-07T01:15:05;1.00;1.00
18305;DHT22;9278;52.156;21.048;2023-12-07T01:17:34;0.90;1.00
18305;DHT22;9278;52.156;21.048;2023-12-07T01:20:03;0.90;1.00
18305;DHT22;9278;52.156;21.048;2023-12-07T01:22:34;0.90;1.00
18305;DHT22;9278;52.156;21.048;2023-12-07T01:25:02;0.70;1.00
18305;DHT22;9278;52.156;21.048;2023-12-07T01:27:33;0.80;1.00
18305;DHT22;9278;52.156;21.048;2023-12-07T01:30:01;0.90;1.00
18305;DHT22;9278;52.156;21.048;2023-12-07T01:32:30;1.00;1.00
18305;DHT22;9278;52.156;21.048;2023-12-07T01:34:58;1.00;1.00
18305;DHT22;9278;52.156;21.048;2023-12-07T01:37:27;0.90;1.00
18305;DHT22;9278;52.156;21.048;2023-12-07T01:39:56;1.00;1.00
18305;DHT22;9278;52.156;21.048;2023-12-07T01:42:24;1.00;1.00
18305;DHT22;9278;52.156;21.048;2023-12-07T01:44:54;1.10;1.00
18305;DHT22;9278;52.156;21.048;2023-12-07T01:47:22;1.00;1.00
18305;DHT22;9278;52.156;21.048;2023-12-07T01:49:51;1.00;1.00
18305;DHT22;9278;52.156;21.048;2023-12-07T01:52:21;0.90;1.00
18305;DHT22;9278;52.156;21.048;2023-12-07T01:54:50;0.90;1.00
18305;DHT22;9278;52.156;21.048;2023-12-07T01:57:19;1.10;1.00
18305;DHT22;9278;52.156;21.048;2023-12-07T01:59:48;1.00;1.00
18305;DHT22;9278;52.156;21.048;2023-12-07T02:02:18;1.00;1.00
18305;DHT22;9278;52.156;21.048;2023-12-07T02:04:47;0.90;1.00
18305;DHT22;9278;52.156;21.048;2023-12-07T02:07:15;0.90;1.00
18305;DHT22;9278;52.156;21.048;2023-12-07T02:09:44;1.00;1.00
18305;DHT22;9278;52.156;21.048;2023-12-07T02:12:12;1.00;1.00
18305;DHT22;9278;52.156;21.048;2023-12-07T02:14:40;0.90;1.00
18305;DHT22;9278;52.156;21.048;2023-12-07T02:17:14;0.90;1.00
18305;DHT22;9278;52.156;21.048;2023-12-07T02:19:52;0.80;1.00
18305;DHT22;9278;52.156;21.048;2023-12-07T02:22:26;0.70;1.00
18305;DHT22;9278;52.156;21.048;2023-12-07T02:25:05;0.90;1.00
18305;DHT22;9278;52.156;21.048;2023-12-07T02:27:39;1.00;1.00
18305;DHT22;9278;52.156;21.048;2023-12-07T02:30:09;0.90;1.00
18305;DHT22;9278;52.156;21.048;2023-12-07T02:32:38;0.90;1.00
18305;DHT22;9278;52.156;21.048;2023-12-07T02:35:08;1.00;1.00
18305;DHT22;9278;52.156;21.048;2023-12-07T02:37:42;1.20;1.00
18305;DHT22;9278;52.156;21.048;2023-12-07T02:40:12;1.10;1.00
18305;DHT22;9278;52.156;21.048;2023-12-07T02:42:44;1.10;1.00
18305;DHT22;9278;52.156;21.048;2023-12-07T02:45:13;1.10;1.00
18305;DHT22;9278;52.156;21.048;2023-12-07T02:47:41;1.20;1.00
18305;DHT22;9278;52.156;21.048;2023-12-07T02:50:12;1.20;1.00
18305;DHT22;9278;52.156;21.048;2023-12-07T02:52:41;1.20;1.00
18305;DHT22;9278;52.156;21.048;2023-12-07T02:55:10;1.20;1.00
18305;DHT22;9278;52.156;21.048;2023-12-07T02:57:38;1.20;1.00
18305;DHT22;9278;52.156;21.048;2023-12-07T03:00:09;1.20;1.00
18305;DHT22;9278;52.156;21.048;2023-12-07T03:02:40;1.00;1.00
18305;DHT22;9278;52.156;21.048;2023-12-07T03:05:08;1.10;1.00
18305;DHT22;9278;52.156;21.048;2023-12-07T03:07:36;1.00;1.00
18305;DHT22;9278;52.156;21.048;2023-12-07T03:10:06;1.00;1.00
18305;DHT22;9278;52.156;21.048;2023-12-07T03:12:34;0.90;99.90
18305;DHT22;9278;52.156;21.048;2023-12-07T03:15:03;0.90;99.90
18305;DHT22;9278;52.156;21.048;2023-12-07T03:17:32;0.90;99.90
18305;DHT22;9278;52.156;21.048;2023-12-07T03:20:01;0.90;1.00
18305;DHT22;9278;52.156;21.048;2023-12-07T03:22:30;1.00;1.00
18305;DHT22;9278;52.156;21.048;2023-12-07T03:24:59;1.00;1.00
18305;DHT22;9278;52.156;21.048;2023-12-07T03:27:27;1.10;1.00
18305;DHT22;9278;52.156;21.048;2023-12-07T03:29:56;1.10;99.90
18305;DHT22;9278;52.156;21.048;2023-12-07T03:32:24;1.10;99.90
18305;DHT22;9278;52.156;21.048;2023-12-07T03:34:54;1.10;6.20
18305;DHT22;9278;52.156;21.048;2023-12-07T03:37:22;1.00;1.00
18305;DHT22;9278;52.156;21.048;2023-12-07T03:39:51;1.10;1.00
18305;DHT22;9278;52.156;21.048;2023-12-07T03:42:19;1.00;1.00
18305;DHT22;9278;52.156;21.048;2023-12-07T03:45:08;1.00;1.00
18305;DHT22;9278;52.156;21.048;2023-12-07T03:47:36;1.00;1.00
18305;DHT22;9278;52.156;21.048;2023-12-07T03:50:06;1.00;1.00
18305;DHT22;9278;52.156;21.048;2023-12-07T03:52:34;0.90;1.00
18305;DHT22;9278;52.156;21.048;2023-12-07T03:55:03;1.00;1.00
18305;DHT22;9278;52.156;21.048;2023-12-07T03:57:32;0.90;1.00
18305;DHT22;9278;52.156;21.048;2023-12-07T04:00:04;0.90;1.00
18305;DHT22;9278;52.156;21.048;2023-12-07T04:02:34;1.00;1.00
18305;DHT22;9278;52.156;21.048;2023-12-07T04:05:03;0.90;1.00
18305;DHT22;9278;52.156;21.048;2023-12-07T04:07:33;1.00;1.00
18305;DHT22;9278;52.156;21.048;2023-12-07T04:10:02;1.00;1.00
18305;DHT22;9278;52.156;21.048;2023-12-07T04:12:32;1.00;1.00
18305;DHT22;9278;52.156;21.048;2023-12-07T04:15:00;1.10;1.00
18305;DHT22;9278;52.156;21.048;2023-12-07T04:17:29;1.00;1.00
18305;DHT22;9278;52.156;21.048;2023-12-07T04:19:57;0.90;1.00
18305;DHT22;9278;52.156;21.048;2023-12-07T04:22:26;0.80;1.00
18305;DHT22;9278;52.156;21.048;2023-12-07T04:24:55;0.90;99.90
18305;DHT22;9278;52.156;21.048;2023-12-07T04:27:23;1.00;1.00
18305;DHT22;9278;52.156;21.048;2023-12-07T04:29:52;0.90;1.00
18305;DHT22;9278;52.156;21.048;2023-12-07T04:32:20;0.90;99.90
18305;DHT22;9278;52.156;21.048;2023-12-07T04:34:49;0.90;99.90
18305;DHT22;9278;52.156;21.048;2023-12-07T04:37:17;0.90;1.00
18305;DHT22;9278;52.156;21.048;2023-12-07T04:39:46;0.90;1.00
18305;DHT22;9278;52.156;21.048;2023-12-07T04:42:15;0.90;99.90
18305;DHT22;9278;52.156;21.048;2023-12-07T04:44:43;0.90;99.90
18305;DHT22;9278;52.156;21.048;2023-12-07T04:47:11;0.90;1.00
18305;DHT22;9278;52.156;21.048;2023-12-07T04:49:40;1.00;1.00
18305;DHT22;9278;52.156;21.048;2023-12-07T04:52:08;0.90;99.90
18305;DHT22;9278;52.156;21.048;2023-12-07T04:54:36;0.90;1.00
18305;DHT22;9278;52.156;21.048;2023-12-07T04:57:05;1.00;1.00
18305;DHT22;9278;52.156;21.048;2023-12-07T04:59:35;0.90;1.00
18305;DHT22;9278;52.156;21.048;2023-12-07T05:02:05;0.90;1.00
18305;DHT22;9278;52.156;21.048;2023-12-07T05:04:33;0.80;1.00
18305;DHT22;9278;52.156;21.048;2023-12-07T05:07:01;0.80;1.00
18305;DHT22;9278;52.156;21.048;2023-12-07T05:09:31;0.90;1.00
18305;DHT22;9278;52.156;21.048;2023-12-07T05:11:59;1.00;1.00
18305;DHT22;9278;52.156;21.048;2023-12-07T05:14:27;1.00;1.00
18305;DHT22;9278;52.156;21.048;2023-12-07T05:16:57;0.90;1.00
18305;DHT22;9278;52.156;21.048;2023-12-07T05:19:25;0.90;1.00
18305;DHT22;9278;52.156;21.048;2023-12-07T05:21:54;1.00;99.90
18305;DHT22;9278;52.156;21.048;2023-12-07T05:24:22;1.00;99.90
18305;DHT22;9278;52.156;21.048;2023-12-07T05:26:50;1.00;1.00
18305;DHT22;9278;52.156;21.048;2023-12-07T05:29:18;0.90;1.00
18305;DHT22;9278;52.156;21.048;2023-12-07T05:31:48;0.90;1.00
18305;DHT22;9278;52.156;21.048;2023-12-07T05:34:18;1.00;1.00
18305;DHT22;9278;52.156;21.048;2023-12-07T05:36:47;0.90;1.00
18305;DHT22;9278;52.156;21.048;2023-12-07T05:39:15;1.00;99.90
18305;DHT22;9278;52.156;21.048;2023-12-07T05:41:44;1.00;99.90
18305;DHT22;9278;52.156;21.048;2023-12-07T05:44:14;1.00;99.90
18305;DHT22;9278;52.156;21.048;2023-12-07T05:46:49;1.10;1.00
18305;DHT22;9278;52.156;21.048;2023-12-07T05:49:18;0.90;99.90
18305;DHT22;9278;52.156;21.048;2023-12-07T05:51:49;1.00;1.00
18305;DHT22;9278;52.156;21.048;2023-12-07T05:54:17;0.90;1.00
18305;DHT22;9278;52.156;21.048;2023-12-07T05:56:47;0.90;99.90
18305;DHT22;9278;52.156;21.048;2023-12-07T05:59:15;1.00;1.00
18305;DHT22;9278;52.156;21.048;2023-12-07T06:01:44;1.00;1.00
18305;DHT22;9278;52.156;21.048;2023-12-07T06:04:12;1.00;1.00
18305;DHT22;9278;52.156;21.048;2023-12-07T06:06:41;1.00;1.00
18305;DHT22;9278;52.156;21.048;2023-12-07T06:09:10;1.00;1.00
18305;DHT22;9278;52.156;21.048;2023-12-07T06:11:38;0.90;99.90
18305;DHT22;9278;52.156;21.048;2023-12-07T06:14:07;1.00;1.00
18305;DHT22;9278;52.156;21.048;2023-12-07T06:16:35;1.00;1.00
18305;DHT22;9278;52.156;21.048;2023-12-07T06:19:04;1.10;1.00
18305;DHT22;9278;52.156;21.048;2023-12-07T06:21:32;0.90;1.00
18305;DHT22;9278;52.156;21.048;2023-12-07T06:24:02;0.90;1.00
18305;DHT22;9278;52.156;21.048;2023-12-07T06:26:30;0.90;1.00
18305;DHT22;9278;52.156;21.048;2023-12-07T06:28:58;1.00;14.30
18305;DHT22;9278;52.156;21.048;2023-12-07T06:31:26;1.10;5.60
18305;DHT22;9278;52.156;21.048;2023-12-07T06:33:54;1.00;1.00
18305;DHT22;9278;52.156;21.048;2023-12-07T06:36:23;0.90;99.90
18305;DHT22;9278;52.156;21.048;2023-12-07T06:38:53;1.00;96.80
18305;DHT22;9278;52.156;21.048;2023-12-07T06:41:23;1.10;1.00
18305;DHT22;9278;52.156;21.048;2023-12-07T06:43:51;1.30;1.00
18305;DHT22;9278;52.156;21.048;2023-12-07T06:46:22;1.30;1.00
18305;DHT22;9278;52.156;21.048;2023-12-07T06:48:50;1.30;40.10
18305;DHT22;9278;52.156;21.048;2023-12-07T06:51:19;1.40;1.00
18305;DHT22;9278;52.156;21.048;2023-12-07T06:53:47;1.40;1.00
18305;DHT22;9278;52.156;21.048;2023-12-07T06:56:15;1.40;99.90
18305;DHT22;9278;52.156;21.048;2023-12-07T06:58:45;1.40;99.90
18305;DHT22;9278;52.156;21.048;2023-12-07T07:01:13;1.40;1.00
18305;DHT22;9278;52.156;21.048;2023-12-07T07:03:42;1.40;1.00
18305;DHT22;9278;52.156;21.048;2023-12-07T07:06:10;1.40;99.90
18305;DHT22;9278;52.156;21.048;2023-12-07T07:08:38;1.30;1.00
18305;DHT22;9278;52.156;21.048;2023-12-07T07:11:12;1.40;1.00
18305;DHT22;9278;52.156;21.048;2023-12-07T07:13:41;1.40;1.00
18305;DHT22;9278;52.156;21.048;2023-12-07T07:16:11;1.40;99.90
18305;DHT22;9278;52.156;21.048;2023-12-07T07:18:40;1.30;99.90
18305;DHT22;9278;52.156;21.048;2023-12-07T07:21:08;1.40;83.90
18305;DHT22;9278;52.156;21.048;2023-12-07T07:23:37;1.30;1.00
18305;DHT22;9278;52.156;21.048;2023-12-07T07:26:05;1.30;99.90
18305;DHT22;9278;52.156;21.048;2023-12-07T07:28:35;1.30;1.00
18305;DHT22;9278;52.156;21.048;2023-12-07T07:31:03;1.40;1.00
18305;DHT22;9278;52.156;21.048;2023-12-07T07:33:33;1.30;99.90
18305;DHT22;9278;52.156;21.048;2023-12-07T07:36:01;1.20;99.90
18305;DHT22;9278;52.156;21.048;2023-12-07T07:38:29;1.30;99.90
18305;DHT22;9278;52.156;21.048;2023-12-07T07:40:57;1.40;1.00
18305;DHT22;9278;52.156;21.048;2023-12-07T07:43:26;1.30;99.90
18305;DHT22;9278;52.156;21.048;2023-12-07T07:45:54;1.40;1.00
18305;DHT22;9278;52.156;21.048;2023-12-07T07:48:22;1.70;1.00
18305;DHT22;9278;52.156;21.048;2023-12-07T07:50:54;1.60;1.00
18305;DHT22;9278;52.156;21.048;2023-12-07T07:53:22;1.50;1.00
18305;DHT22;9278;52.156;21.048;2023-12-07T07:55:51;1.70;99.90
18305;DHT22;9278;52.156;21.048;2023-12-07T07:58:19;1.70;1.00
18305;DHT22;9278;52.156;21.048;2023-12-07T08:00:48;1.70;1.00
18305;DHT22;9278;52.156;21.048;2023-12-07T08:03:16;1.80;99.90
18305;DHT22;9278;52.156;21.048;2023-12-07T08:05:45;1.70;1.00
18305;DHT22;9278;52.156;21.048;2023-12-07T08:08:14;2.00;1.00
18305;DHT22;9278;52.156;21.048;2023-12-07T08:10:42;2.10;99.90
18305;DHT22;9278;52.156;21.048;2023-12-07T08:13:22;2.60;1.00
18305;DHT22;9278;52.156;21.048;2023-12-07T08:15:50;2.60;74.60
18305;DHT22;9278;52.156;21.048;2023-12-07T08:18:23;2.60;1.00
18305;DHT22;9278;52.156;21.048;2023-12-07T08:20:53;2.60;1.00
18305;DHT22;9278;52.156;21.048;2023-12-07T08:23:23;2.60;1.00
18305;DHT22;9278;52.156;21.048;2023-12-07T08:25:51;2.50;1.00
18305;DHT22;9278;52.156;21.048;2023-12-07T08:28:19;2.60;1.00
18305;DHT22;9278;52.156;21.048;2023-12-07T08:30:48;2.50;1.00
18305;DHT22;9278;52.156;21.048;2023-12-07T08:33:16;2.50;1.00
18305;DHT22;9278;52.156;21.048;2023-12-07T08:35:45;2.40;1.00
18305;DHT22;9278;52.156;21.048;2023-12-07T08:38:13;2.50;99.90
18305;DHT22;9278;52.156;21.048;2023-12-07T08:40:43;2.50;99.90
18305;DHT22;9278;52.156;21.048;2023-12-07T08:43:11;2.60;1.00
18305;DHT22;9278;52.156;21.048;2023-12-07T08:45:39;2.60;99.90
18305;DHT22;9278;52.156;21.048;2023-12-07T08:48:07;2.50;99.90
18305;DHT22;9278;52.156;21.048;2023-12-07T08:50:36;2.40;1.00
18305;DHT22;9278;52.156;21.048;2023-12-07T08:53:04;2.60;1.00
18305;DHT22;9278;52.156;21.048;2023-12-07T08:55:33;2.70;1.00
18305;DHT22;9278;52.156;21.048;2023-12-07T08:58:02;2.70;1.00
18305;DHT22;9278;52.156;21.048;2023-12-07T09:00:31;2.50;25.40
18305;DHT22;9278;52.156;21.048;2023-12-07T09:02:59;2.50;50.00
18305;DHT22;9278;52.156;21.048;2023-12-07T09:05:28;2.40;99.90
18305;DHT22;9278;52.156;21.048;2023-12-07T09:07:57;2.30;1.00
18305;DHT22;9278;52.156;21.048;2023-12-07T09:10:25;2.20;99.90
18305;DHT22;9278;52.156;21.048;2023-12-07T09:12:55;2.30;99.90
18305;DHT22;9278;52.156;21.048;2023-12-07T09:15:24;2.30;99.90
18305;DHT22;9278;52.156;21.048;2023-12-07T09:17:53;2.30;99.90
18305;DHT22;9278;52.156;21.048;2023-12-07T09:20:21;2.20;99.90
18305;DHT22;9278;52.156;21.048;2023-12-07T09:22:50;2.30;1.00
18305;DHT22;9278;52.156;21.048;2023-12-07T09:25:18;2.20;1.00
18305;DHT22;9278;52.156;21.048;2023-12-07T09:27:46;2.20;99.90
18305;DHT22;9278;52.156;21.048;2023-12-07T09:30:16;2.20;99.90
18305;DHT22;9278;52.156;21.048;2023-12-07T09:32:45;2.10;99.90
18305;DHT22;9278;52.156;21.048;2023-12-07T09:35:14;1.90;99.90
18305;DHT22;9278;52.156;21.048;2023-12-07T09:37:48;2.20;1.00
18305;DHT22;9278;52.156;21.048;2023-12-07T09:40:17;2.30;1.00
18305;DHT22;9278;52.156;21.048;2023-12-07T09:42:48;2.30;1.00
18305;DHT22;9278;52.156;21.048;2023-12-07T09:45:17;2.00;1.00
18305;DHT22;9278;52.156;21.048;2023-12-07T09:47:50;2.00;99.90
18305;DHT22;9278;52.156;21.048;2023-12-07T09:50:20;2.00;99.90
18305;DHT22;9278;52.156;21.048;2023-12-07T09:52:50;2.00;99.90
18305;DHT22;9278;52.156;21.048;2023-12-07T09:55:33;2.20;99.90
18305;DHT22;9278;52.156;21.048;2023-12-07T09:58:03;2.30;99.90
18305;DHT22;9278;52.156;21.048;2023-12-07T10:00:34;2.30;99.90
18305;DHT22;9278;52.156;21.048;2023-12-07T10:03:05;2.50;99.90
18305;DHT22;9278;52.156;21.048;2023-12-07T10:05:53;2.40;99.90
18305;DHT22;9278;52.156;21.048;2023-12-07T10:08:29;2.30;99.90
18305;DHT22;9278;52.156;21.048;2023-12-07T10:11:06;2.10;99.90
18305;DHT22;9278;52.156;21.048;2023-12-07T10:13:35;2.30;99.90
18305;DHT22;9278;52.156;21.048;2023-12-07T10:16:08;2.20;99.90
18305;DHT22;9278;52.156;21.048;2023-12-07T10:18:39;2.20;99.90
18305;DHT22;9278;52.156;21.048;2023-12-07T10:21:11;2.30;99.90
18305;DHT22;9278;52.156;21.048;2023-12-07T10:23:41;2.20;99.90
18305;DHT22;9278;52.156;21.048;2023-12-07T10:26:11;2.40;99.90
18305;DHT22;9278;52.156;21.048;2023-12-07T10:28:40;2.20;99.90
18305;DHT22;9278;52.156;21.048;2023-12-07T10:31:09;2.10;99.90
18305;DHT22;9278;52.156;21.048;2023-12-07T10:33:39;2.20;99.90
18305;DHT22;9278;52.156;21.048;2023-12-07T10:36:09;2.40;99.90
18305;DHT22;9278;52.156;21.048;2023-12-07T10:38:37;2.30;99.90
18305;DHT22;9278;52.156;21.048;2023-12-07T10:41:12;2.30;99.90
18305;DHT22;9278;52.156;21.048;2023-12-07T10:43:43;2.30;99.90
18305;DHT22;9278;52.156;21.048;2023-12-07T10:46:15;2.30;99.90
18305;DHT22;9278;52.156;21.048;2023-12-07T10:48:45;2.30;99.90
18305;DHT22;9278;52.156;21.048;2023-12-07T10:51:20;2.50;99.90
18305;DHT22;9278;52.156;21.048;2023-12-07T10:53:51;2.30;99.90
18305;DHT22;9278;52.156;21.048;2023-12-07T10:56:38;2.10;99.90
18305;DHT22;9278;52.156;21.048;2023-12-07T10:59:09;2.30;99.90
18305;DHT22;9278;52.156;21.048;2023-12-07T11:01:53;2.10;99.90
18305;DHT22;9278;52.156;21.048;2023-12-07T11:04:25;2.10;99.90
18305;DHT22;9278;52.156;21.048;2023-12-07T11:06:57;2.20;99.90
18305;DHT22;9278;52.156;21.048;2023-12-07T11:09:31;1.90;99.90
18305;DHT22;9278;52.156;21.048;2023-12-07T11:12:04;2.00;99.90
18305;DHT22;9278;52.156;21.048;2023-12-07T11:14:38;2.00;99.90
18305;DHT22;9278;52.156;21.048;2023-12-07T11:17:07;2.00;99.90
18305;DHT22;9278;52.156;21.048;2023-12-07T11:19:49;1.90;99.90
18305;DHT22;9278;52.156;21.048;2023-12-07T11:22:20;2.10;99.90
18305;DHT22;9278;52.156;21.048;2023-12-07T11:24:54;2.10;99.90
18305;DHT22;9278;52.156;21.048;2023-12-07T11:27:25;2.10;99.90
18305;DHT22;9278;52.156;21.048;2023-12-07T11:29:58;2.20;99.90
18305;DHT22;9278;52.156;21.048;2023-12-07T11:32:27;2.30;99.90
18305;DHT22;9278;52.156;21.048;2023-12-07T11:35:01;2.10;99.90
18305;DHT22;9278;52.156;21.048;2023-12-07T11:38:01;2.20;99.90
18305;DHT22;9278;52.156;21.048;2023-12-07T11:40:30;2.30;99.90
18305;DHT22;9278;52.156;21.048;2023-12-07T11:43:00;2.30;99.90
18305;DHT22;9278;52.156;21.048;2023-12-07T11:45:38;2.50;99.90
18305;DHT22;9278;52.156;21.048;2023-12-07T11:48:11;2.70;99.90
18305;DHT22;9278;52.156;21.048;2023-12-07T11:50:56;2.70;99.90
18305;DHT22;9278;52.156;21.048;2023-12-07T11:53:26;2.70;99.90
18305;DHT22;9278;52.156;21.048;2023-12-07T11:55:55;2.50;99.90
18305;DHT22;9278;52.156;21.048;2023-12-07T11:58:25;2.40;99.90
18305;DHT22;9278;52.156;21.048;2023-12-07T12:00:53;2.10;99.90
18305;DHT22;9278;52.156;21.048;2023-12-07T12:03:25;2.10;99.90
18305;DHT22;9278;52.156;21.048;2023-12-07T12:05:55;2.10;99.90
18305;DHT22;9278;52.156;21.048;2023-12-07T12:08:24;2.30;99.90
18305;DHT22;9278;52.156;21.048;2023-12-07T12:10:53;2.20;99.90
18305;DHT22;9278;52.156;21.048;2023-12-07T12:13:27;2.10;99.90
18305;DHT22;9278;52.156;21.048;2023-12-07T12:15:56;2.40;99.90
18305;DHT22;9278;52.156;21.048;2023-12-07T12:18:30;2.50;99.90
18305;DHT22;9278;52.156;21.048;2023-12-07T12:21:01;2.30;99.90
18305;DHT22;9278;52.156;21.048;2023-12-07T12:23:29;2.30;99.90
18305;DHT22;9278;52.156;21.048;2023-12-07T12:25:58;2.20;99.90
18305;DHT22;9278;52.156;21.048;2023-12-07T12:28:26;2.40;99.90
18305;DHT22;9278;52.156;21.048;2023-12-07T12:30:55;2.20;99.90
18305;DHT22;9278;52.156;21.048;2023-12-07T12:33:24;2.00;99.90
18305;DHT22;9278;52.156;21.048;2023-12-07T12:36:02;2.10;99.90
18305;DHT22;9278;52.156;21.048;2023-12-07T12:38:32;2.00;99.90
18305;DHT22;9278;52.156;21.048;2023-12-07T12:41:09;1.80;99.90
18305;DHT22;9278;52.156;21.048;2023-12-07T12:43:37;1.80;99.90
18305;DHT22;9278;52.156;21.048;2023-12-07T12:46:06;1.80;99.90
18305;DHT22;9278;52.156;21.048;2023-12-07T12:48:34;2.00;99.90
18305;DHT22;9278;52.156;21.048;2023-12-07T12:51:13;1.90;99.90
18305;DHT22;9278;52.156;21.048;2023-12-07T12:53:45;2.00;99.90
18305;DHT22;9278;52.156;21.048;2023-12-07T12:56:18;2.00;99.90
18305;DHT22;9278;52.156;21.048;2023-12-07T12:58:47;1.80;99.90
18305;DHT22;9278;52.156;21.048;2023-12-07T13:01:16;1.70;99.90
18305;DHT22;9278;52.156;21.048;2023-12-07T13:03:45;1.60;99.90
18305;DHT22;9278;52.156;21.048;2023-12-07T13:06:16;1.80;99.90
18305;DHT22;9278;52.156;21.048;2023-12-07T13:08:46;1.60;99.90
18305;DHT22;9278;52.156;21.048;2023-12-07T13:11:17;1.50;99.90
18305;DHT22;9278;52.156;21.048;2023-12-07T13:13:47;1.40;99.90
18305;DHT22;9278;52.156;21.048;2023-12-07T13:16:15;1.40;99.90
18305;DHT22;9278;52.156;21.048;2023-12-07T13:18:44;1.40;99.90
18305;DHT22;9278;52.156;21.048;2023-12-07T13:21:12;1.50;99.90
18305;DHT22;9278;52.156;21.048;2023-12-07T13:23:44;1.50;99.90
18305;DHT22;9278;52.156;21.048;2023-12-07T13:26:13;1.40;99.90
18305;DHT22;9278;52.156;21.048;2023-12-07T13:28:41;1.30;99.90
18305;DHT22;9278;52.156;21.048;2023-12-07T13:31:10;1.50;99.90
18305;DHT22;9278;52.156;21.048;2023-12-07T13:33:39;1.70;99.90
18305;DHT22;9278;52.156;21.048;2023-12-07T13:36:21;1.50;99.90
18305;DHT22;9278;52.156;21.048;2023-12-07T13:38:52;1.50;99.90
18305;DHT22;9278;52.156;21.048;2023-12-07T13:41:20;1.50;99.90
18305;DHT22;9278;52.156;21.048;2023-12-07T13:43:49;1.50;99.90
18305;DHT22;9278;52.156;21.048;2023-12-07T13:46:17;1.50;99.90
18305;DHT22;9278;52.156;21.048;2023-12-07T13:48:46;1.40;99.90
18305;DHT22;9278;52.156;21.048;2023-12-07T13:51:15;1.40;99.90
18305;DHT22;9278;52.156;21.048;2023-12-07T13:53:43;1.40;99.90
18305;DHT22;9278;52.156;21.048;2023-12-07T13:56:13;1.30;99.90
18305;DHT22;9278;52.156;21.048;2023-12-07T13:58:41;1.30;99.90
18305;DHT22;9278;52.156;21.048;2023-12-07T14:01:09;1.60;99.90
18305;DHT22;9278;52.156;21.048;2023-12-07T14:03:38;1.40;99.90
18305;DHT22;9278;52.156;21.048;2023-12-07T14:06:07;1.40;99.90
18305;DHT22;9278;52.156;21.048;2023-12-07T14:08:47;1.20;99.90
18305;DHT22;9278;52.156;21.048;2023-12-07T14:11:18;1.40;99.90
18305;DHT22;9278;52.156;21.048;2023-12-07T14:13:46;1.40;99.90
18305;DHT22;9278;52.156;21.048;2023-12-07T14:16:15;1.40;99.90
18305;DHT22;9278;52.156;21.048;2023-12-07T14:18:58;1.40;99.90
18305;DHT22;9278;52.156;21.048;2023-12-07T14:21:41;1.20;99.90
18305;DHT22;9278;52.156;21.048;2023-12-07T14:24:22;1.30;99.90
18305;DHT22;9278;52.156;21.048;2023-12-07T14:26:53;1.20;99.90
18305;DHT22;9278;52.156;21.048;2023-12-07T14:29:22;1.40;99.90
18305;DHT22;9278;52.156;21.048;2023-12-07T14:31:54;1.30;99.90
18305;DHT22;9278;52.156;21.048;2023-12-07T14:34:23;1.30;99.90
18305;DHT22;9278;52.156;21.048;2023-12-07T14:37:01;1.10;99.90
18305;DHT22;9278;52.156;21.048;2023-12-07T14:39:34;1.00;99.90
18305;DHT22;9278;52.156;21.048;2023-12-07T14:42:04;0.90;99.90
18305;DHT22;9278;52.156;21.048;2023-12-07T14:44:33;1.10;99.90
18305;DHT22;9278;52.156;21.048;2023-12-07T14:47:02;1.00;99.90
18305;DHT22;9278;52.156;21.048;2023-12-07T14:49:30;1.10;99.90
18305;DHT22;9278;52.156;21.048;2023-12-07T14:51:58;1.10;99.90
18305;DHT22;9278;52.156;21.048;2023-12-07T14:54:27;1.00;99.90
18305;DHT22;9278;52.156;21.048;2023-12-07T14:56:58;1.00;99.90
18305;DHT22;9278;52.156;21.048;2023-12-07T14:59:29;0.80;99.90
18305;DHT22;9278;52.156;21.048;2023-12-07T15:01:57;0.80;99.90
18305;DHT22;9278;52.156;21.048;2023-12-07T15:04:25;0.80;99.90
18305;DHT22;9278;52.156;21.048;2023-12-07T15:07:00;0.90;99.90
18305;DHT22;9278;52.156;21.048;2023-12-07T15:09:28;0.90;99.90
18305;DHT22;9278;52.156;21.048;2023-12-07T15:11:57;0.90;99.90
18305;DHT22;9278;52.156;21.048;2023-12-07T15:14:25;0.90;99.90
18305;DHT22;9278;52.156;21.048;2023-12-07T15:17:05;1.00;99.90
18305;DHT22;9278;52.156;21.048;2023-12-07T15:19:36;1.00;99.90
18305;DHT22;9278;52.156;21.048;2023-12-07T15:22:05;1.00;99.90
18305;DHT22;9278;52.156;21.048;2023-12-07T15:24:35;1.00;99.90
18305;DHT22;9278;52.156;21.048;2023-12-07T15:27:06;1.00;99.90
18305;DHT22;9278;52.156;21.048;2023-12-07T15:29:35;1.00;99.90
18305;DHT22;9278;52.156;21.048;2023-12-07T15:32:07;0.80;99.90
18305;DHT22;9278;52.156;21.048;2023-12-07T15:34:36;0.80;99.90
18305;DHT22;9278;52.156;21.048;2023-12-07T15:37:09;0.80;99.90
18305;DHT22;9278;52.156;21.048;2023-12-07T15:39:41;0.80;99.90
18305;DHT22;9278;52.156;21.048;2023-12-07T15:42:10;0.70;99.90
18305;DHT22;9278;52.156;21.048;2023-12-07T15:44:39;0.80;99.90
18305;DHT22;9278;52.156;21.048;2023-12-07T15:47:09;0.80;99.90
18305;DHT22;9278;52.156;21.048;2023-12-07T15:49:38;0.70;99.90
18305;DHT22;9278;52.156;21.048;2023-12-07T15:52:08;0.80;99.90
18305;DHT22;9278;52.156;21.048;2023-12-07T15:54:36;0.80;99.90
18305;DHT22;9278;52.156;21.048;2023-12-07T15:57:07;0.70;99.90
18305;DHT22;9278;52.156;21.048;2023-12-07T15:59:38;0.70;99.90
18305;DHT22;9278;52.156;21.048;2023-12-07T16:02:09;0.70;99.90
18305;DHT22;9278;52.156;21.048;2023-12-07T16:04:38;0.70;99.90
18305;DHT22;9278;52.156;21.048;2023-12-07T16:07:06;0.70;99.90
18305;DHT22;9278;52.156;21.048;2023-12-07T16:09:38;0.80;99.90